createdAt,value
2023-05-19T00:00:14.770Z,2.15
2023-05-19T00:02:44.077Z,2.28
2023-05-19T00:05:15.231Z,2.75
2023-05-19T00:07:44.704Z,2.22
2023-05-19T00:10:12.749Z,2.20
2023-05-19T00:12:40.430Z,1.80
2023-05-19T00:15:08.695Z,1.83
2023-05-19T00:17:37.078Z,2.05
2023-05-19T00:20:07.358Z,1.67
2023-05-19T00:22:36.930Z,1.83
2023-05-19T00:25:06.299Z,1.88
2023-05-19T00:27:33.671Z,1.60
2023-05-19T00:30:01.109Z,1.42
2023-05-19T00:32:28.575Z,1.73
2023-05-19T00:34:56.006Z,2.20
2023-05-19T00:37:23.500Z,1.55
2023-05-19T00:39:52.209Z,4.30
2023-05-19T00:42:19.640Z,3.53
2023-05-19T00:44:47.041Z,2.60
2023-05-19T00:47:14.432Z,1.58
2023-05-19T00:49:41.901Z,1.70
2023-05-19T00:52:09.387Z,1.83
2023-05-19T00:54:37.091Z,1.42
2023-05-19T00:57:06.210Z,1.63
2023-05-19T00:59:33.683Z,1.52
2023-05-19T01:02:02.975Z,1.80
2023-05-19T01:04:34.962Z,1.40
2023-05-19T01:07:02.484Z,1.88
2023-05-19T01:09:30.795Z,1.70
2023-05-19T01:11:58.245Z,1.95
2023-05-19T01:14:27.112Z,1.80
2023-05-19T01:16:56.657Z,1.30
2023-05-19T01:19:32.120Z,1.42
2023-05-19T01:22:15.546Z,1.42
2023-05-19T01:25:01.785Z,1.80
2023-05-19T01:27:42.845Z,1.40
2023-05-19T01:30:23.727Z,1.52
2023-05-19T01:32:52.633Z,1.13
2023-05-19T01:35:20.449Z,1.77
2023-05-19T01:37:48.191Z,1.85
2023-05-19T01:40:15.956Z,1.67
2023-05-19T01:42:45.409Z,1.67
2023-05-19T01:45:13.229Z,1.50
2023-05-19T01:47:43.983Z,1.30
2023-05-19T01:50:11.947Z,1.50
2023-05-19T01:52:39.411Z,1.60
2023-05-19T01:55:07.610Z,1.95
2023-05-19T01:57:40.310Z,1.40
2023-05-19T02:00:11.815Z,1.60
2023-05-19T02:02:41.487Z,1.48
2023-05-19T02:05:14.494Z,1.92
2023-05-19T02:07:43.947Z,1.85
2023-05-19T02:10:12.699Z,1.40
2023-05-19T02:12:41.530Z,1.48
2023-05-19T02:15:12.170Z,1.60
2023-05-19T02:17:42.465Z,1.70
2023-05-19T02:20:12.018Z,1.58
2023-05-19T02:22:39.669Z,1.40
2023-05-19T02:25:07.586Z,1.40
2023-05-19T02:27:35.158Z,1.88
2023-05-19T02:30:02.602Z,1.30
2023-05-19T02:32:30.127Z,1.58
2023-05-19T02:34:57.580Z,1.50
2023-05-19T02:37:28.568Z,1.95
2023-05-19T02:39:56.520Z,1.35
2023-05-19T02:42:24.133Z,1.70
2023-05-19T02:44:52.448Z,1.38
2023-05-19T02:47:19.851Z,1.40
2023-05-19T02:49:47.354Z,1.80
2023-05-19T02:52:14.789Z,1.60
2023-05-19T02:54:43.700Z,1.60
2023-05-19T02:57:11.237Z,1.67
2023-05-19T02:59:38.817Z,1.50
2023-05-19T03:02:06.378Z,1.45
2023-05-19T03:04:42.096Z,1.52
2023-05-19T03:07:10.541Z,1.45
2023-05-19T03:09:38.220Z,1.58
2023-05-19T03:12:07.747Z,1.38
2023-05-19T03:14:37.761Z,1.25
2023-05-19T03:17:07.770Z,1.88
2023-05-19T03:19:35.402Z,1.20
2023-05-19T03:22:02.888Z,1.20
2023-05-19T03:24:30.346Z,1.70
2023-05-19T03:26:57.774Z,1.60
2023-05-19T03:29:26.670Z,1.90
2023-05-19T03:31:54.126Z,1.50
2023-05-19T03:34:22.394Z,1.40
2023-05-19T03:36:50.370Z,1.80
2023-05-19T03:39:17.802Z,1.55
2023-05-19T03:41:45.210Z,1.70
2023-05-19T03:44:12.634Z,1.50
2023-05-19T03:46:41.494Z,1.40
2023-05-19T03:49:08.983Z,1.87
2023-05-19T03:51:36.726Z,2.10
2023-05-19T03:54:04.494Z,1.80
2023-05-19T03:56:32.737Z,1.63
2023-05-19T03:59:00.290Z,1.80
2023-05-19T04:01:27.819Z,1.70
2023-05-19T04:03:56.684Z,1.95
2023-05-19T04:06:24.475Z,1.30
2023-05-19T04:08:51.879Z,1.60
2023-05-19T04:11:20.028Z,1.63
2023-05-19T04:13:47.538Z,2.08
2023-05-19T04:16:15.342Z,2.10
2023-05-19T04:18:45.535Z,1.73
2023-05-19T04:21:14.328Z,1.50
2023-05-19T04:23:41.775Z,1.98
2023-05-19T04:26:09.292Z,2.03
2023-05-19T04:28:39.926Z,2.28
2023-05-19T04:31:10.787Z,2.47
2023-05-19T04:33:38.432Z,1.80
2023-05-19T04:36:08.660Z,2.30
2023-05-19T04:38:39.847Z,2.05
2023-05-19T04:41:10.247Z,1.88
2023-05-19T04:43:41.936Z,1.90
2023-05-19T04:46:11.619Z,2.13
2023-05-19T04:48:41.106Z,1.90
2023-05-19T04:51:08.652Z,2.30
2023-05-19T04:53:37.585Z,2.40
2023-05-19T04:56:05.193Z,2.40
2023-05-19T04:58:33.254Z,2.50
2023-05-19T05:01:00.746Z,1.98
2023-05-19T05:03:28.271Z,2.20
2023-05-19T05:05:56.757Z,2.03
2023-05-19T05:08:24.294Z,2.63
2023-05-19T05:10:53.651Z,2.35
2023-05-19T05:13:22.818Z,2.85
2023-05-19T05:15:52.122Z,2.78
2023-05-19T05:18:20.035Z,2.10
2023-05-19T05:20:48.229Z,2.42
2023-05-19T05:23:16.782Z,2.70
2023-05-19T05:25:44.957Z,2.55
2023-05-19T05:28:13.728Z,2.13
2023-05-19T05:30:41.465Z,2.07
2023-05-19T05:33:10.612Z,2.50
2023-05-19T05:35:38.409Z,2.10
2023-05-19T05:38:06.500Z,2.78
2023-05-19T05:40:33.945Z,2.15
2023-05-19T05:43:01.615Z,2.45
2023-05-19T05:45:30.544Z,2.40
2023-05-19T05:47:58.496Z,2.63
2023-05-19T05:50:26.605Z,2.30
2023-05-19T05:52:54.671Z,2.15
2023-05-19T05:55:22.750Z,2.42
2023-05-19T05:57:50.481Z,2.00
2023-05-19T06:00:18.501Z,2.25
2023-05-19T06:02:47.508Z,2.42
2023-05-19T06:05:15.160Z,2.50
2023-05-19T06:07:42.826Z,2.30
2023-05-19T06:10:12.481Z,2.50
2023-05-19T06:12:40.616Z,2.15
2023-05-19T06:15:08.569Z,2.33
2023-05-19T06:17:36.254Z,2.20
2023-05-19T06:20:06.136Z,2.15
2023-05-19T06:22:33.643Z,2.67
2023-05-19T06:25:01.248Z,2.33
2023-05-19T06:27:28.688Z,1.80
2023-05-19T06:29:56.131Z,2.25
2023-05-19T06:32:23.648Z,2.40
2023-05-19T06:34:54.166Z,2.13
2023-05-19T06:37:23.822Z,2.25
2023-05-19T06:39:52.445Z,2.38
2023-05-19T06:42:22.279Z,2.03
2023-05-19T06:44:50.094Z,2.40
2023-05-19T06:47:17.686Z,2.25
2023-05-19T06:49:45.245Z,1.80
2023-05-19T06:52:12.713Z,2.28
2023-05-19T06:54:41.721Z,2.20
2023-05-19T06:57:09.204Z,1.90
2023-05-19T06:59:37.650Z,1.65
2023-05-19T07:02:05.615Z,1.67
2023-05-19T07:04:33.154Z,2.00
2023-05-19T07:07:00.794Z,2.30
2023-05-19T07:09:28.209Z,2.40
2023-05-19T07:11:57.235Z,1.67
2023-05-19T07:14:24.713Z,1.83
2023-05-19T07:16:52.318Z,2.13
2023-05-19T07:19:20.188Z,2.05
2023-05-19T07:21:48.076Z,1.85
2023-05-19T07:24:15.527Z,2.55
2023-05-19T07:26:43.203Z,1.80
2023-05-19T07:29:11.935Z,1.70
2023-05-19T07:31:39.484Z,2.10
2023-05-19T07:34:06.975Z,2.20
2023-05-19T07:36:34.930Z,1.88
2023-05-19T07:39:02.675Z,2.70
2023-05-19T07:41:30.212Z,2.00
2023-05-19T07:43:57.612Z,2.10
2023-05-19T07:46:26.672Z,1.85
2023-05-19T07:48:54.286Z,1.90
2023-05-19T07:51:21.719Z,1.90
2023-05-19T07:53:49.203Z,2.33
2023-05-19T07:56:16.727Z,2.20
2023-05-19T07:58:44.252Z,2.08
2023-05-19T08:01:11.809Z,2.20
2023-05-19T08:03:40.715Z,1.90
2023-05-19T08:08:35.631Z,2.30
2023-05-19T08:11:03.354Z,2.38
2023-05-19T08:13:31.014Z,2.33
2023-05-19T08:16:00.050Z,1.90
2023-05-19T08:18:27.860Z,2.22
2023-05-19T08:20:56.638Z,2.30
2023-05-19T08:23:24.095Z,6.18
2023-05-19T08:25:52.406Z,3.10
2023-05-19T08:28:19.926Z,2.22
2023-05-19T08:30:47.436Z,2.10
2023-05-19T08:33:14.982Z,2.10
2023-05-19T08:35:42.725Z,2.10
2023-05-19T08:38:11.592Z,2.03
2023-05-19T08:40:42.360Z,2.05
2023-05-19T08:43:11.200Z,2.00
2023-05-19T08:45:40.358Z,2.15
2023-05-19T08:48:08.676Z,1.85
2023-05-19T08:50:37.350Z,2.20
2023-05-19T08:56:02.246Z,2.03
2023-05-19T08:58:29.942Z,1.92
2023-05-19T09:00:57.467Z,2.20
2023-05-19T09:03:26.586Z,2.30
2023-05-19T09:05:54.183Z,2.63
2023-05-19T09:08:22.623Z,1.83
2023-05-19T09:10:50.282Z,2.05
2023-05-19T09:13:19.516Z,2.15
2023-05-19T09:15:46.993Z,1.90
2023-05-19T09:18:15.222Z,2.13
2023-05-19T09:20:43.600Z,1.90
2023-05-19T09:23:13.994Z,2.10
2023-05-19T09:25:47.594Z,2.00
2023-05-19T09:28:15.905Z,1.98
2023-05-19T09:30:44.652Z,1.60
2023-05-19T09:33:12.755Z,1.98
2023-05-19T09:35:40.321Z,2.00
2023-05-19T09:38:07.734Z,1.80
2023-05-19T09:40:35.290Z,2.00
2023-05-19T09:43:06.032Z,1.90
2023-05-19T09:45:33.743Z,2.20
2023-05-19T09:48:04.367Z,1.70
2023-05-19T09:50:33.935Z,2.10
2023-05-19T09:53:01.812Z,1.77
2023-05-19T09:55:30.357Z,1.92
2023-05-19T09:57:58.309Z,2.13
2023-05-19T10:00:26.446Z,1.65
2023-05-19T10:02:54.181Z,2.13
2023-05-19T10:05:23.640Z,1.80
2023-05-19T10:07:52.411Z,2.13
2023-05-19T10:10:20.994Z,1.63
2023-05-19T10:12:48.679Z,1.77
2023-05-19T10:15:17.298Z,1.73
2023-05-19T10:17:45.465Z,2.58
2023-05-19T10:20:14.116Z,2.53
2023-05-19T10:22:43.826Z,1.90
2023-05-19T10:25:13.169Z,2.10
2023-05-19T10:27:44.213Z,1.60
2023-05-19T10:30:16.317Z,1.42
2023-05-19T10:32:46.629Z,1.67
2023-05-19T10:35:29.179Z,1.77
2023-05-19T10:38:06.091Z,1.60
2023-05-19T10:40:34.676Z,2.00
2023-05-19T10:43:12.897Z,1.63
2023-05-19T10:45:43.030Z,1.30
2023-05-19T10:48:11.793Z,1.23
2023-05-19T10:50:39.419Z,1.55
2023-05-19T10:53:15.054Z,1.85
2023-05-19T10:55:46.183Z,1.35
2023-05-19T10:58:13.664Z,2.05
2023-05-19T11:00:41.518Z,1.60
2023-05-19T11:03:15.993Z,1.40
2023-05-19T11:05:45.540Z,1.67
2023-05-19T11:08:14.477Z,2.05
2023-05-19T11:10:45.111Z,1.75
2023-05-19T11:13:19.958Z,2.13
2023-05-19T11:15:47.513Z,1.38
2023-05-19T11:18:15.887Z,2.08
2023-05-19T11:20:44.557Z,1.27
2023-05-19T11:23:15.775Z,1.58
2023-05-19T11:25:45.645Z,1.27
2023-05-19T11:28:14.199Z,1.60
2023-05-19T11:30:43.396Z,1.30
2023-05-19T11:33:11.018Z,1.45
2023-05-19T11:35:39.609Z,1.30
2023-05-19T11:38:07.828Z,1.30
2023-05-19T11:40:35.333Z,1.40
2023-05-19T11:43:04.119Z,1.48
2023-05-19T11:45:33.292Z,1.52
2023-05-19T11:48:03.138Z,1.40
2023-05-19T11:50:31.618Z,1.20
2023-05-19T11:53:01.074Z,1.63
2023-05-19T11:55:29.620Z,1.40
2023-05-19T11:58:03.919Z,1.10
2023-05-19T12:00:37.123Z,1.00
2023-05-19T12:03:04.634Z,1.30
2023-05-19T12:05:35.064Z,1.40
2023-05-19T12:08:05.294Z,1.20
2023-05-19T12:10:33.959Z,1.15
2023-05-19T12:13:02.382Z,1.13
2023-05-19T12:15:29.877Z,1.08
2023-05-19T12:17:59.351Z,1.13
2023-05-19T12:20:27.455Z,1.00
2023-05-19T12:22:56.357Z,1.13
2023-05-19T12:25:24.346Z,1.40
2023-05-19T12:27:52.807Z,1.00
2023-05-19T12:30:25.742Z,1.40
2023-05-19T12:32:54.676Z,1.10
2023-05-19T12:35:26.640Z,1.00
2023-05-19T12:37:54.696Z,1.10
2023-05-19T12:40:22.245Z,1.45
2023-05-19T12:42:52.042Z,1.50
2023-05-19T12:45:21.273Z,1.50
2023-05-19T12:47:49.463Z,0.98
2023-05-19T12:50:17.172Z,1.48
2023-05-19T12:52:46.778Z,2.00
2023-05-19T12:55:16.448Z,1.10
2023-05-19T13:00:15.064Z,0.90
2023-05-19T13:02:55.893Z,0.98
2023-05-19T13:05:24.019Z,0.90
2023-05-19T13:07:56.679Z,0.80
2023-05-19T13:10:24.235Z,1.02
2023-05-19T13:12:51.624Z,0.80
2023-05-19T13:15:19.161Z,1.02
2023-05-19T13:17:47.358Z,1.20
2023-05-19T13:20:15.059Z,1.05
2023-05-19T13:22:43.174Z,1.00
2023-05-19T13:25:12.124Z,0.90
2023-05-19T13:27:39.577Z,1.15
2023-05-19T13:30:08.288Z,1.02
2023-05-19T13:32:35.923Z,1.10
2023-05-19T13:35:03.592Z,1.15
2023-05-19T13:37:31.081Z,1.08
2023-05-19T13:39:58.627Z,1.30
2023-05-19T13:42:27.486Z,0.80
2023-05-19T13:44:55.895Z,0.93
2023-05-19T13:47:23.868Z,1.00
2023-05-19T13:49:51.879Z,1.08
2023-05-19T13:52:20.522Z,1.10
2023-05-19T13:54:48.048Z,1.08
2023-05-19T13:57:17.683Z,1.00
2023-05-19T14:00:00.207Z,1.17
2023-05-19T14:02:30.109Z,1.00
2023-05-19T14:04:58.001Z,1.33
2023-05-19T14:07:25.459Z,2.28
2023-05-19T14:09:53.436Z,1.10
2023-05-19T14:12:27.810Z,1.00
2023-05-19T14:15:03.402Z,0.90
2023-05-19T14:17:30.900Z,0.77
2023-05-19T14:19:58.489Z,0.82
2023-05-19T14:22:26.117Z,1.02
2023-05-19T14:24:53.507Z,0.90
2023-05-19T14:27:21.010Z,1.00
2023-05-19T14:29:49.055Z,0.93
2023-05-19T14:32:18.260Z,0.90
2023-05-19T14:34:45.907Z,0.88
2023-05-19T14:37:13.395Z,0.90
2023-05-19T14:39:45.448Z,0.90
2023-05-19T14:42:13.030Z,0.80
2023-05-19T14:44:40.427Z,1.60
2023-05-19T14:47:08.424Z,1.05
2023-05-19T14:49:37.357Z,1.10
2023-05-19T14:52:04.895Z,1.13
2023-05-19T14:54:34.129Z,1.00
2023-05-19T14:57:01.654Z,0.70
2023-05-19T14:59:29.796Z,0.90
2023-05-19T15:01:57.484Z,0.88
2023-05-19T15:04:25.171Z,1.13
2023-05-19T15:07:05.795Z,1.10
2023-05-19T15:09:37.255Z,1.08
2023-05-19T15:12:04.904Z,1.00
2023-05-19T15:14:32.606Z,0.98
2023-05-19T15:17:00.232Z,0.82
2023-05-19T15:19:27.949Z,0.98
2023-05-19T15:21:57.128Z,1.02
2023-05-19T15:24:24.987Z,0.82
2023-05-19T15:26:52.983Z,1.00
2023-05-19T15:29:20.505Z,1.17
2023-05-19T15:31:50.644Z,1.30
2023-05-19T15:34:18.572Z,0.95
2023-05-19T15:36:46.170Z,1.40
2023-05-19T15:39:15.195Z,1.02
2023-05-19T15:41:42.689Z,0.90
2023-05-19T15:44:10.267Z,1.25
2023-05-19T15:46:38.013Z,1.08
2023-05-19T15:49:05.500Z,1.02
2023-05-19T15:51:33.053Z,1.00
2023-05-19T15:54:00.594Z,1.02
2023-05-19T15:56:32.081Z,1.10
2023-05-19T15:58:59.852Z,0.90
2023-05-19T16:01:27.637Z,1.00
2023-05-19T16:03:55.240Z,1.27
2023-05-19T16:06:22.815Z,1.05
2023-05-19T16:08:50.259Z,1.02
2023-05-19T16:11:18.274Z,1.20
2023-05-19T16:13:47.138Z,1.60
2023-05-19T16:16:14.681Z,1.25
2023-05-19T16:18:44.134Z,1.13
2023-05-19T16:21:11.772Z,1.10
2023-05-19T16:23:40.322Z,0.80
2023-05-19T16:26:07.897Z,1.25
2023-05-19T16:28:35.409Z,3.20
2023-05-19T16:31:04.267Z,1.00
2023-05-19T16:33:31.703Z,1.40
2023-05-19T16:36:00.016Z,1.23
2023-05-19T16:38:27.663Z,1.10
2023-05-19T16:40:55.383Z,1.02
2023-05-19T16:43:23.003Z,1.10
2023-05-19T16:45:53.562Z,1.17
2023-05-19T16:48:22.597Z,1.10
2023-05-19T16:50:50.242Z,1.13
2023-05-19T16:53:17.867Z,0.95
2023-05-19T16:55:45.595Z,1.13
2023-05-19T16:58:13.171Z,2.60
2023-05-19T17:00:40.955Z,1.10
2023-05-19T17:03:08.604Z,1.65
2023-05-19T17:05:39.046Z,1.05
2023-05-19T17:08:06.511Z,1.20
2023-05-19T17:10:34.357Z,1.65
2023-05-19T17:13:02.254Z,1.08
2023-05-19T17:15:31.182Z,0.93
2023-05-19T17:17:58.814Z,1.25
2023-05-19T17:20:26.492Z,1.08
2023-05-19T17:22:58.450Z,1.10
2023-05-19T17:25:25.982Z,1.30
2023-05-19T17:27:56.278Z,1.23
2023-05-19T17:30:23.946Z,1.40
2023-05-19T17:32:53.583Z,1.40
2023-05-19T17:35:21.168Z,1.63
2023-05-19T17:37:50.340Z,1.10
2023-05-19T17:40:19.263Z,1.38
2023-05-19T17:42:46.875Z,1.10
2023-05-19T17:45:14.503Z,1.38
2023-05-19T17:47:42.115Z,1.70
2023-05-19T17:50:10.123Z,1.20
2023-05-19T17:52:39.380Z,1.50
2023-05-19T17:55:07.520Z,1.20
2023-05-19T17:57:36.670Z,1.40
2023-05-19T18:00:04.647Z,1.35
2023-05-19T18:02:32.503Z,1.35
2023-05-19T18:05:00.600Z,1.30
2023-05-19T18:07:28.792Z,1.13
2023-05-19T18:09:56.999Z,1.20
2023-05-19T18:12:24.772Z,1.40
2023-05-19T18:14:53.492Z,1.40
2023-05-19T18:17:20.958Z,1.80
2023-05-19T18:19:49.419Z,3.63
2023-05-19T18:22:20.308Z,3.13
2023-05-19T18:24:49.425Z,3.95
2023-05-19T18:27:18.777Z,4.05
2023-05-19T18:29:46.386Z,3.08
2023-05-19T18:32:16.932Z,3.22
2023-05-19T18:34:44.624Z,2.35
2023-05-19T18:37:12.254Z,2.60
2023-05-19T18:39:39.777Z,4.45
2023-05-19T18:42:09.060Z,4.05
2023-05-19T18:44:36.629Z,2.72
2023-05-19T18:47:04.160Z,1.98
2023-05-19T18:49:33.027Z,1.70
2023-05-19T18:52:00.899Z,1.40
2023-05-19T18:54:28.559Z,1.50
2023-05-19T18:56:56.127Z,1.85
2023-05-19T18:59:27.039Z,1.58
2023-05-19T19:01:59.713Z,1.67
2023-05-19T19:04:31.812Z,1.75
2023-05-19T19:07:03.561Z,1.27
2023-05-19T19:09:31.169Z,1.67
2023-05-19T19:11:58.761Z,1.40
2023-05-19T19:14:28.728Z,1.40
2023-05-19T19:16:56.503Z,2.10
2023-05-19T19:19:29.819Z,2.08
2023-05-19T19:22:00.155Z,2.00
2023-05-19T19:24:34.033Z,1.80
2023-05-19T19:27:01.508Z,2.25
2023-05-19T19:29:34.968Z,2.10
2023-05-19T19:32:05.041Z,2.25
2023-05-19T19:34:32.692Z,2.30
2023-05-19T19:37:00.388Z,2.47
2023-05-19T19:39:27.934Z,2.28
2023-05-19T19:41:56.883Z,2.05
2023-05-19T19:44:24.434Z,2.22
2023-05-19T19:46:52.091Z,2.15
2023-05-19T19:49:19.742Z,2.10
2023-05-19T19:51:47.366Z,2.03
2023-05-19T19:54:14.944Z,2.03
2023-05-19T19:56:42.657Z,1.90
2023-05-19T19:59:14.676Z,2.03
2023-05-19T20:01:44.366Z,2.35
2023-05-19T20:04:15.577Z,2.90
2023-05-19T20:06:43.365Z,2.72
2023-05-19T20:09:13.799Z,3.10
2023-05-19T20:11:47.172Z,2.97
2023-05-19T20:14:19.434Z,2.50
2023-05-19T20:16:47.271Z,2.75
2023-05-19T20:19:23.542Z,2.70
2023-05-19T20:21:51.472Z,2.42
2023-05-19T20:24:21.638Z,2.80
2023-05-19T20:26:52.125Z,2.45
2023-05-19T20:29:21.384Z,2.20
2023-05-19T20:31:48.942Z,2.55
2023-05-19T20:34:16.664Z,2.33
2023-05-19T20:36:44.436Z,2.30
2023-05-19T20:39:13.178Z,2.45
2023-05-19T20:41:40.937Z,2.30
2023-05-19T20:44:10.313Z,2.05
2023-05-19T20:46:39.456Z,2.25
2023-05-19T20:49:07.501Z,1.98
2023-05-19T20:51:35.099Z,2.10
2023-05-19T20:54:02.811Z,2.22
2023-05-19T20:56:30.438Z,3.28
2023-05-19T20:59:00.963Z,2.35
2023-05-19T21:01:29.909Z,2.22
2023-05-19T21:03:59.180Z,2.28
2023-05-19T21:06:27.017Z,2.10
2023-05-19T21:08:54.720Z,2.00
2023-05-19T21:11:22.525Z,2.38
2023-05-19T21:13:51.358Z,2.10
2023-05-19T21:16:19.080Z,2.20
2023-05-19T21:18:49.686Z,2.35
2023-05-19T21:21:18.725Z,2.22
2023-05-19T21:23:46.354Z,2.28
2023-05-19T21:26:14.026Z,1.70
2023-05-19T21:28:42.145Z,2.33
2023-05-19T21:31:09.953Z,2.40
2023-05-19T21:33:37.600Z,2.00
2023-05-19T21:36:06.065Z,2.35
2023-05-19T21:38:35.285Z,2.25
2023-05-19T21:41:02.876Z,2.30
2023-05-19T21:43:33.098Z,2.03
2023-05-19T21:46:00.754Z,2.70
2023-05-19T21:48:28.437Z,2.63
2023-05-19T21:50:57.190Z,2.58
2023-05-19T21:53:25.325Z,2.60
2023-05-19T21:55:54.414Z,2.75
2023-05-19T21:58:22.925Z,2.70
2023-05-19T22:00:50.822Z,2.67
2023-05-19T22:03:18.687Z,2.92
2023-05-19T22:05:49.536Z,5.18
2023-05-19T22:08:17.544Z,7.93
2023-05-19T22:10:45.339Z,6.22
2023-05-19T22:13:14.285Z,3.72
2023-05-19T22:15:41.976Z,3.92
2023-05-19T22:18:09.759Z,4.22
2023-05-19T22:20:37.461Z,4.00
2023-05-19T22:23:05.146Z,4.13
2023-05-19T22:25:32.862Z,4.43
2023-05-19T22:28:01.251Z,3.58
2023-05-19T22:30:30.153Z,2.92
2023-05-19T22:32:58.006Z,2.90
2023-05-19T22:35:25.958Z,2.80
2023-05-19T22:37:53.548Z,2.50
2023-05-19T22:40:21.223Z,2.50
2023-05-19T22:42:48.874Z,2.80
2023-05-19T22:45:16.533Z,2.55
2023-05-19T22:47:45.530Z,2.67
2023-05-19T22:50:13.224Z,2.85
2023-05-19T22:52:40.919Z,2.22
2023-05-19T22:55:09.101Z,2.40
2023-05-19T22:57:36.828Z,2.50
2023-05-19T23:00:04.754Z,2.10
2023-05-19T23:02:32.523Z,1.88
2023-05-19T23:05:01.513Z,2.40
2023-05-19T23:07:29.030Z,2.40
2023-05-19T23:09:56.633Z,2.20
2023-05-19T23:12:24.160Z,2.17
2023-05-19T23:14:52.009Z,2.60
2023-05-19T23:17:19.543Z,2.33
2023-05-19T23:19:47.005Z,2.65
2023-05-19T23:22:15.916Z,2.35
2023-05-19T23:24:43.513Z,2.30
2023-05-19T23:27:10.993Z,2.30
2023-05-19T23:29:38.470Z,2.28
2023-05-19T23:32:06.455Z,2.70
2023-05-19T23:34:33.884Z,2.42
2023-05-19T23:37:01.509Z,3.00
2023-05-19T23:39:30.284Z,2.55
2023-05-19T23:41:57.752Z,2.47
2023-05-19T23:44:26.312Z,2.67
2023-05-19T23:46:53.883Z,2.35
2023-05-19T23:49:21.609Z,2.53
2023-05-19T23:51:49.331Z,2.28
2023-05-19T23:54:16.853Z,2.47
2023-05-19T23:56:45.803Z,2.22
2023-05-19T23:59:13.362Z,2.57
